sensor_id;sensor_type;location;lat;lon;timestamp;temperature;humidity
19880;DHT22;10102;50.828;4.416;2023-06-22T00:00:58;24.30;99.90
19880;DHT22;10102;50.828;4.416;2023-06-22T00:03:25;24.20;99.90
19880;DHT22;10102;50.828;4.416;2023-06-22T00:05:51;24.00;99.90
19880;DHT22;10102;50.828;4.416;2023-06-22T00:08:17;23.80;99.90
19880;DHT22;10102;50.828;4.416;2023-06-22T00:10:44;24.10;99.90
19880;DHT22;10102;50.828;4.416;2023-06-22T00:13:12;23.90;99.90
19880;DHT22;10102;50.828;4.416;2023-06-22T00:15:40;24.10;99.90
19880;DHT22;10102;50.828;4.416;2023-06-22T00:18:10;24.20;99.90
19880;DHT22;10102;50.828;4.416;2023-06-22T00:20:36;24.30;99.90
19880;DHT22;10102;50.828;4.416;2023-06-22T00:23:03;24.00;99.90
19880;DHT22;10102;50.828;4.416;2023-06-22T00:25:34;24.20;99.90
19880;DHT22;10102;50.828;4.416;2023-06-22T00:28:01;24.20;99.90
19880;DHT22;10102;50.828;4.416;2023-06-22T00:30:26;23.90;99.90
19880;DHT22;10102;50.828;4.416;2023-06-22T00:32:52;24.00;99.90
19880;DHT22;10102;50.828;4.416;2023-06-22T00:35:18;23.70;99.90
19880;DHT22;10102;50.828;4.416;2023-06-22T00:37:43;24.00;99.90
19880;DHT22;10102;50.828;4.416;2023-06-22T00:40:09;23.80;99.90
19880;DHT22;10102;50.828;4.416;2023-06-22T00:42:38;24.00;99.90
19880;DHT22;10102;50.828;4.416;2023-06-22T00:45:05;24.10;99.90
19880;DHT22;10102;50.828;4.416;2023-06-22T00:47:36;24.00;99.90
19880;DHT22;10102;50.828;4.416;2023-06-22T00:50:02;23.80;99.90
19880;DHT22;10102;50.828;4.416;2023-06-22T00:52:29;24.10;99.90
19880;DHT22;10102;50.828;4.416;2023-06-22T00:54:59;24.10;99.90
19880;DHT22;10102;50.828;4.416;2023-06-22T00:57:28;24.00;99.90
19880;DHT22;10102;50.828;4.416;2023-06-22T00:59:54;23.70;99.90
19880;DHT22;10102;50.828;4.416;2023-06-22T01:02:20;24.00;99.90
19880;DHT22;10102;50.828;4.416;2023-06-22T01:04:46;23.70;99.90
19880;DHT22;10102;50.828;4.416;2023-06-22T01:09:59;23.70;99.90
19880;DHT22;10102;50.828;4.416;2023-06-22T01:12:30;23.90;99.90
19880;DHT22;10102;50.828;4.416;2023-06-22T01:15:08;24.00;99.90
19880;DHT22;10102;50.828;4.416;2023-06-22T01:17:36;23.90;99.90
19880;DHT22;10102;50.828;4.416;2023-06-22T01:20:06;23.80;99.90
19880;DHT22;10102;50.828;4.416;2023-06-22T01:23:26;23.70;99.90
19880;DHT22;10102;50.828;4.416;2023-06-22T01:26:05;23.70;99.90
19880;DHT22;10102;50.828;4.416;2023-06-22T01:28:45;23.90;99.90
19880;DHT22;10102;50.828;4.416;2023-06-22T01:31:14;23.60;99.90
19880;DHT22;10102;50.828;4.416;2023-06-22T01:33:43;23.60;99.90
19880;DHT22;10102;50.828;4.416;2023-06-22T01:38:37;23.60;99.90
19880;DHT22;10102;50.828;4.416;2023-06-22T01:41:04;23.50;99.90
19880;DHT22;10102;50.828;4.416;2023-06-22T01:43:30;23.40;99.90
19880;DHT22;10102;50.828;4.416;2023-06-22T01:45:57;23.30;99.90
19880;DHT22;10102;50.828;4.416;2023-06-22T01:48:23;23.40;99.90
19880;DHT22;10102;50.828;4.416;2023-06-22T01:53:15;23.20;99.90
19880;DHT22;10102;50.828;4.416;2023-06-22T01:55:41;23.20;99.90
19880;DHT22;10102;50.828;4.416;2023-06-22T01:58:06;23.00;99.90
19880;DHT22;10102;50.828;4.416;2023-06-22T02:00:37;23.10;99.90
19880;DHT22;10102;50.828;4.416;2023-06-22T02:03:10;22.90;99.90
19880;DHT22;10102;50.828;4.416;2023-06-22T02:05:51;22.90;99.90
19880;DHT22;10102;50.828;4.416;2023-06-22T02:08:21;23.20;99.90
19880;DHT22;10102;50.828;4.416;2023-06-22T02:10:49;23.00;99.90
19880;DHT22;10102;50.828;4.416;2023-06-22T02:13:16;23.00;99.90
19880;DHT22;10102;50.828;4.416;2023-06-22T02:15:42;22.90;99.90
19880;DHT22;10102;50.828;4.416;2023-06-22T02:18:08;22.90;99.90
19880;DHT22;10102;50.828;4.416;2023-06-22T02:20:38;22.70;99.90
19880;DHT22;10102;50.828;4.416;2023-06-22T02:23:05;23.10;99.90
19880;DHT22;10102;50.828;4.416;2023-06-22T02:25:33;22.70;99.90
19880;DHT22;10102;50.828;4.416;2023-06-22T02:27:58;22.80;99.90
19880;DHT22;10102;50.828;4.416;2023-06-22T02:32:50;22.50;99.90
19880;DHT22;10102;50.828;4.416;2023-06-22T02:35:28;22.50;99.90
19880;DHT22;10102;50.828;4.416;2023-06-22T02:38:01;22.40;99.90
19880;DHT22;10102;50.828;4.416;2023-06-22T02:40:28;22.40;99.90
19880;DHT22;10102;50.828;4.416;2023-06-22T02:42:55;22.30;99.90
19880;DHT22;10102;50.828;4.416;2023-06-22T02:45:20;22.50;99.90
19880;DHT22;10102;50.828;4.416;2023-06-22T02:47:46;22.40;99.90
19880;DHT22;10102;50.828;4.416;2023-06-22T02:50:13;22.30;99.90
19880;DHT22;10102;50.828;4.416;2023-06-22T02:52:39;22.40;99.90
19880;DHT22;10102;50.828;4.416;2023-06-22T02:55:05;22.30;99.90
19880;DHT22;10102;50.828;4.416;2023-06-22T02:57:32;22.50;99.90
19880;DHT22;10102;50.828;4.416;2023-06-22T02:59:59;22.40;99.90
19880;DHT22;10102;50.828;4.416;2023-06-22T03:02:25;22.30;99.90
19880;DHT22;10102;50.828;4.416;2023-06-22T03:04:52;22.40;99.90
19880;DHT22;10102;50.828;4.416;2023-06-22T03:09:44;22.10;99.90
19880;DHT22;10102;50.828;4.416;2023-06-22T03:12:10;22.00;99.90
19880;DHT22;10102;50.828;4.416;2023-06-22T03:14:36;22.10;99.90
19880;DHT22;10102;50.828;4.416;2023-06-22T03:17:02;22.40;99.90
19880;DHT22;10102;50.828;4.416;2023-06-22T03:19:29;21.90;99.90
19880;DHT22;10102;50.828;4.416;2023-06-22T03:21:59;22.10;99.90
19880;DHT22;10102;50.828;4.416;2023-06-22T03:24:24;22.00;99.90
19880;DHT22;10102;50.828;4.416;2023-06-22T03:29:16;22.20;99.90
19880;DHT22;10102;50.828;4.416;2023-06-22T03:31:41;22.10;99.90
19880;DHT22;10102;50.828;4.416;2023-06-22T03:36:33;22.10;99.90
19880;DHT22;10102;50.828;4.416;2023-06-22T03:41:25;22.70;99.90
19880;DHT22;10102;50.828;4.416;2023-06-22T03:46:17;22.20;99.90
19880;DHT22;10102;50.828;4.416;2023-06-22T03:48:43;22.20;99.90
19880;DHT22;10102;50.828;4.416;2023-06-22T03:51:09;22.40;99.90
19880;DHT22;10102;50.828;4.416;2023-06-22T03:53:35;22.40;99.90
19880;DHT22;10102;50.828;4.416;2023-06-22T03:56:00;22.50;99.90
19880;DHT22;10102;50.828;4.416;2023-06-22T03:58:26;22.50;99.90
19880;DHT22;10102;50.828;4.416;2023-06-22T04:00:52;22.70;99.90
19880;DHT22;10102;50.828;4.416;2023-06-22T04:03:18;22.60;99.90
19880;DHT22;10102;50.828;4.416;2023-06-22T04:05:44;22.50;99.90
19880;DHT22;10102;50.828;4.416;2023-06-22T04:08:11;22.50;99.90
19880;DHT22;10102;50.828;4.416;2023-06-22T04:10:37;22.70;99.90
19880;DHT22;10102;50.828;4.416;2023-06-22T04:13:03;22.50;99.90
19880;DHT22;10102;50.828;4.416;2023-06-22T04:15:28;22.60;99.90
19880;DHT22;10102;50.828;4.416;2023-06-22T04:17:55;22.40;99.90
19880;DHT22;10102;50.828;4.416;2023-06-22T04:20:21;22.40;99.90
19880;DHT22;10102;50.828;4.416;2023-06-22T04:22:46;22.60;99.90
19880;DHT22;10102;50.828;4.416;2023-06-22T04:25:12;22.20;99.90
19880;DHT22;10102;50.828;4.416;2023-06-22T04:27:37;21.90;99.90
19880;DHT22;10102;50.828;4.416;2023-06-22T04:30:07;21.70;99.90
19880;DHT22;10102;50.828;4.416;2023-06-22T04:32:34;21.80;99.90
19880;DHT22;10102;50.828;4.416;2023-06-22T04:35:02;21.60;99.90
19880;DHT22;10102;50.828;4.416;2023-06-22T04:37:30;21.90;99.90
19880;DHT22;10102;50.828;4.416;2023-06-22T04:39:55;21.80;99.90
19880;DHT22;10102;50.828;4.416;2023-06-22T04:42:21;22.20;99.90
19880;DHT22;10102;50.828;4.416;2023-06-22T04:44:47;22.10;99.90
19880;DHT22;10102;50.828;4.416;2023-06-22T04:47:12;22.20;99.90
19880;DHT22;10102;50.828;4.416;2023-06-22T04:49:38;22.20;99.90
19880;DHT22;10102;50.828;4.416;2023-06-22T04:52:07;22.50;99.90
19880;DHT22;10102;50.828;4.416;2023-06-22T04:54:34;22.50;99.90
19880;DHT22;10102;50.828;4.416;2023-06-22T04:57:01;22.50;99.90
19880;DHT22;10102;50.828;4.416;2023-06-22T04:59:28;22.50;99.90
19880;DHT22;10102;50.828;4.416;2023-06-22T05:01:59;22.70;99.90
19880;DHT22;10102;50.828;4.416;2023-06-22T05:04:26;22.60;99.90
19880;DHT22;10102;50.828;4.416;2023-06-22T05:06:53;22.50;99.90
19880;DHT22;10102;50.828;4.416;2023-06-22T05:09:19;22.30;99.90
19880;DHT22;10102;50.828;4.416;2023-06-22T05:11:45;22.30;99.90
19880;DHT22;10102;50.828;4.416;2023-06-22T05:14:11;22.20;99.90
19880;DHT22;10102;50.828;4.416;2023-06-22T05:16:38;22.10;99.90
19880;DHT22;10102;50.828;4.416;2023-06-22T05:19:04;22.40;99.90
19880;DHT22;10102;50.828;4.416;2023-06-22T05:21:30;22.40;99.90
19880;DHT22;10102;50.828;4.416;2023-06-22T05:23:56;22.30;99.90
19880;DHT22;10102;50.828;4.416;2023-06-22T05:26:26;22.20;99.90
19880;DHT22;10102;50.828;4.416;2023-06-22T05:28:52;22.10;99.90
19880;DHT22;10102;50.828;4.416;2023-06-22T05:31:18;23.40;99.90
19880;DHT22;10102;50.828;4.416;2023-06-22T05:33:46;22.30;99.90
19880;DHT22;10102;50.828;4.416;2023-06-22T05:36:12;22.10;99.90
19880;DHT22;10102;50.828;4.416;2023-06-22T05:38:39;22.00;99.90
19880;DHT22;10102;50.828;4.416;2023-06-22T05:41:05;22.00;99.90
19880;DHT22;10102;50.828;4.416;2023-06-22T05:45:57;22.10;99.90
19880;DHT22;10102;50.828;4.416;2023-06-22T05:48:23;22.10;99.90
19880;DHT22;10102;50.828;4.416;2023-06-22T05:50:49;22.20;99.90
19880;DHT22;10102;50.828;4.416;2023-06-22T05:53:15;22.10;99.90
19880;DHT22;10102;50.828;4.416;2023-06-22T05:55:41;22.00;99.90
19880;DHT22;10102;50.828;4.416;2023-06-22T05:58:08;22.20;99.90
19880;DHT22;10102;50.828;4.416;2023-06-22T06:02:59;22.00;99.90
19880;DHT22;10102;50.828;4.416;2023-06-22T06:05:30;22.10;99.90
19880;DHT22;10102;50.828;4.416;2023-06-22T06:07:55;22.10;99.90
19880;DHT22;10102;50.828;4.416;2023-06-22T06:10:21;22.30;99.90
19880;DHT22;10102;50.828;4.416;2023-06-22T06:12:47;22.20;99.90
19880;DHT22;10102;50.828;4.416;2023-06-22T06:15:13;22.30;99.90
19880;DHT22;10102;50.828;4.416;2023-06-22T06:17:51;22.20;99.90
19880;DHT22;10102;50.828;4.416;2023-06-22T06:20:24;22.20;99.90
19880;DHT22;10102;50.828;4.416;2023-06-22T06:25:16;22.60;99.90
19880;DHT22;10102;50.828;4.416;2023-06-22T06:30:10;22.60;99.90
19880;DHT22;10102;50.828;4.416;2023-06-22T06:32:36;22.80;99.90
19880;DHT22;10102;50.828;4.416;2023-06-22T06:35:04;22.90;99.90
19880;DHT22;10102;50.828;4.416;2023-06-22T06:37:30;23.40;99.90
19880;DHT22;10102;50.828;4.416;2023-06-22T06:39:56;23.20;99.90
19880;DHT22;10102;50.828;4.416;2023-06-22T06:42:21;23.10;99.90
19880;DHT22;10102;50.828;4.416;2023-06-22T06:44:49;23.30;99.90
19880;DHT22;10102;50.828;4.416;2023-06-22T06:47:15;23.40;99.90
19880;DHT22;10102;50.828;4.416;2023-06-22T06:49:42;23.70;99.90
19880;DHT22;10102;50.828;4.416;2023-06-22T06:52:08;23.40;99.90
19880;DHT22;10102;50.828;4.416;2023-06-22T06:57:00;23.50;99.90
19880;DHT22;10102;50.828;4.416;2023-06-22T06:59:25;23.50;99.90
19880;DHT22;10102;50.828;4.416;2023-06-22T07:01:51;23.60;99.90
19880;DHT22;10102;50.828;4.416;2023-06-22T07:04:16;23.60;99.90
19880;DHT22;10102;50.828;4.416;2023-06-22T07:06:42;23.80;99.90
19880;DHT22;10102;50.828;4.416;2023-06-22T07:09:08;23.90;99.90
19880;DHT22;10102;50.828;4.416;2023-06-22T07:11:34;23.80;99.90
19880;DHT22;10102;50.828;4.416;2023-06-22T07:14:01;23.90;99.90
19880;DHT22;10102;50.828;4.416;2023-06-22T07:16:26;23.60;99.90
19880;DHT22;10102;50.828;4.416;2023-06-22T07:18:53;23.90;99.90
19880;DHT22;10102;50.828;4.416;2023-06-22T07:26:10;24.20;99.90
19880;DHT22;10102;50.828;4.416;2023-06-22T07:28:38;24.60;99.90
19880;DHT22;10102;50.828;4.416;2023-06-22T07:31:06;24.40;99.90
19880;DHT22;10102;50.828;4.416;2023-06-22T07:33:33;24.60;99.90
19880;DHT22;10102;50.828;4.416;2023-06-22T07:35:58;24.50;99.90
19880;DHT22;10102;50.828;4.416;2023-06-22T07:40:50;24.30;99.90
19880;DHT22;10102;50.828;4.416;2023-06-22T07:43:16;24.40;99.90
19880;DHT22;10102;50.828;4.416;2023-06-22T07:45:48;24.20;99.90
19880;DHT22;10102;50.828;4.416;2023-06-22T07:48:19;24.20;99.90
19880;DHT22;10102;50.828;4.416;2023-06-22T07:53:11;24.20;99.90
19880;DHT22;10102;50.828;4.416;2023-06-22T07:55:37;24.00;99.90
19880;DHT22;10102;50.828;4.416;2023-06-22T07:58:02;24.10;99.90
19880;DHT22;10102;50.828;4.416;2023-06-22T08:00:28;24.00;99.90
19880;DHT22;10102;50.828;4.416;2023-06-22T08:02:54;24.10;99.90
19880;DHT22;10102;50.828;4.416;2023-06-22T08:05:19;23.90;99.90
19880;DHT22;10102;50.828;4.416;2023-06-22T08:07:45;23.70;99.90
19880;DHT22;10102;50.828;4.416;2023-06-22T08:10:11;23.70;99.90
19880;DHT22;10102;50.828;4.416;2023-06-22T08:12:42;23.70;99.90
19880;DHT22;10102;50.828;4.416;2023-06-22T08:15:08;23.80;99.90
19880;DHT22;10102;50.828;4.416;2023-06-22T08:17:36;23.70;99.90
19880;DHT22;10102;50.828;4.416;2023-06-22T08:20:02;23.50;99.90
19880;DHT22;10102;50.828;4.416;2023-06-22T08:22:34;23.40;99.90
19880;DHT22;10102;50.828;4.416;2023-06-22T08:25:01;23.50;99.90
19880;DHT22;10102;50.828;4.416;2023-06-22T08:29:55;23.30;99.90
19880;DHT22;10102;50.828;4.416;2023-06-22T08:32:23;23.30;99.90
19880;DHT22;10102;50.828;4.416;2023-06-22T08:37:15;23.10;99.90
19880;DHT22;10102;50.828;4.416;2023-06-22T08:39:41;23.30;99.90
19880;DHT22;10102;50.828;4.416;2023-06-22T08:42:07;23.10;99.90
19880;DHT22;10102;50.828;4.416;2023-06-22T08:46:59;23.20;99.90
19880;DHT22;10102;50.828;4.416;2023-06-22T08:49:24;23.40;99.90
19880;DHT22;10102;50.828;4.416;2023-06-22T08:51:50;23.10;99.90
19880;DHT22;10102;50.828;4.416;2023-06-22T08:54:18;23.30;99.90
19880;DHT22;10102;50.828;4.416;2023-06-22T08:56:44;23.10;99.90
19880;DHT22;10102;50.828;4.416;2023-06-22T09:01:36;23.30;99.90
19880;DHT22;10102;50.828;4.416;2023-06-22T09:04:01;23.10;99.90
19880;DHT22;10102;50.828;4.416;2023-06-22T09:06:27;23.30;99.90
19880;DHT22;10102;50.828;4.416;2023-06-22T09:08:53;23.30;99.90
19880;DHT22;10102;50.828;4.416;2023-06-22T09:13:44;23.30;99.90
19880;DHT22;10102;50.828;4.416;2023-06-22T09:16:11;23.30;99.90
19880;DHT22;10102;50.828;4.416;2023-06-22T09:18:37;23.30;99.90
19880;DHT22;10102;50.828;4.416;2023-06-22T09:21:03;23.40;99.90
19880;DHT22;10102;50.828;4.416;2023-06-22T09:23:28;23.20;99.90
19880;DHT22;10102;50.828;4.416;2023-06-22T09:25:54;23.50;99.90
19880;DHT22;10102;50.828;4.416;2023-06-22T09:28:20;23.20;99.90
19880;DHT22;10102;50.828;4.416;2023-06-22T09:30:45;23.40;99.90
19880;DHT22;10102;50.828;4.416;2023-06-22T09:33:11;23.00;99.90
19880;DHT22;10102;50.828;4.416;2023-06-22T09:38:03;23.00;99.90
19880;DHT22;10102;50.828;4.416;2023-06-22T09:40:28;22.80;99.90
19880;DHT22;10102;50.828;4.416;2023-06-22T09:42:54;22.70;99.90
19880;DHT22;10102;50.828;4.416;2023-06-22T09:45:20;22.60;99.90
19880;DHT22;10102;50.828;4.416;2023-06-22T09:50:11;22.20;99.90
19880;DHT22;10102;50.828;4.416;2023-06-22T09:52:37;22.00;99.90
19880;DHT22;10102;50.828;4.416;2023-06-22T09:55:03;22.00;99.90
19880;DHT22;10102;50.828;4.416;2023-06-22T09:57:29;22.00;99.90
19880;DHT22;10102;50.828;4.416;2023-06-22T09:59:55;21.70;99.90
19880;DHT22;10102;50.828;4.416;2023-06-22T10:02:21;21.50;99.90
19880;DHT22;10102;50.828;4.416;2023-06-22T10:04:47;21.50;99.90
19880;DHT22;10102;50.828;4.416;2023-06-22T10:07:13;21.30;99.90
19880;DHT22;10102;50.828;4.416;2023-06-22T10:09:39;21.40;99.90
19880;DHT22;10102;50.828;4.416;2023-06-22T10:12:04;21.60;99.90
19880;DHT22;10102;50.828;4.416;2023-06-22T10:14:30;21.80;99.90
19880;DHT22;10102;50.828;4.416;2023-06-22T10:16:56;21.70;99.90
19880;DHT22;10102;50.828;4.416;2023-06-22T10:19:22;21.50;99.90
19880;DHT22;10102;50.828;4.416;2023-06-22T10:21:47;21.40;99.90
19880;DHT22;10102;50.828;4.416;2023-06-22T10:24:13;21.50;99.90
19880;DHT22;10102;50.828;4.416;2023-06-22T10:29:05;21.20;99.90
19880;DHT22;10102;50.828;4.416;2023-06-22T10:33:56;21.20;99.90
19880;DHT22;10102;50.828;4.416;2023-06-22T10:36:22;21.30;99.90
19880;DHT22;10102;50.828;4.416;2023-06-22T10:38:49;21.10;99.90
19880;DHT22;10102;50.828;4.416;2023-06-22T10:41:15;21.50;99.90
19880;DHT22;10102;50.828;4.416;2023-06-22T10:43:41;21.30;99.90
19880;DHT22;10102;50.828;4.416;2023-06-22T10:46:07;21.40;99.90
19880;DHT22;10102;50.828;4.416;2023-06-22T10:48:32;21.30;99.90
19880;DHT22;10102;50.828;4.416;2023-06-22T10:50:58;21.50;99.90
19880;DHT22;10102;50.828;4.416;2023-06-22T10:53:24;21.40;99.90
19880;DHT22;10102;50.828;4.416;2023-06-22T10:55:50;21.30;99.90
19880;DHT22;10102;50.828;4.416;2023-06-22T10:58:18;21.40;99.90
19880;DHT22;10102;50.828;4.416;2023-06-22T11:00:44;21.50;99.90
19880;DHT22;10102;50.828;4.416;2023-06-22T11:03:10;21.60;99.90
19880;DHT22;10102;50.828;4.416;2023-06-22T11:05:36;21.50;99.90
19880;DHT22;10102;50.828;4.416;2023-06-22T11:10:27;21.70;99.90
19880;DHT22;10102;50.828;4.416;2023-06-22T11:12:53;21.60;99.90
19880;DHT22;10102;50.828;4.416;2023-06-22T11:15:20;21.60;99.90
19880;DHT22;10102;50.828;4.416;2023-06-22T11:17:46;21.70;99.90
19880;DHT22;10102;50.828;4.416;2023-06-22T11:20:12;21.70;99.90
19880;DHT22;10102;50.828;4.416;2023-06-22T11:22:38;21.70;99.90
19880;DHT22;10102;50.828;4.416;2023-06-22T11:25:05;21.50;99.90
19880;DHT22;10102;50.828;4.416;2023-06-22T11:27:30;21.70;99.90
19880;DHT22;10102;50.828;4.416;2023-06-22T11:29:56;21.50;99.90
19880;DHT22;10102;50.828;4.416;2023-06-22T11:32:22;21.70;99.90
19880;DHT22;10102;50.828;4.416;2023-06-22T11:37:14;21.70;99.90
19880;DHT22;10102;50.828;4.416;2023-06-22T11:39:41;21.40;99.90
19880;DHT22;10102;50.828;4.416;2023-06-22T11:44:33;21.40;99.90
19880;DHT22;10102;50.828;4.416;2023-06-22T11:46:59;21.50;99.90
19880;DHT22;10102;50.828;4.416;2023-06-22T11:49:26;21.60;99.90
19880;DHT22;10102;50.828;4.416;2023-06-22T11:51:52;21.70;99.90
19880;DHT22;10102;50.828;4.416;2023-06-22T11:54:18;21.50;99.90
19880;DHT22;10102;50.828;4.416;2023-06-22T11:56:43;21.70;99.90
19880;DHT22;10102;50.828;4.416;2023-06-22T12:01:35;21.70;99.90
19880;DHT22;10102;50.828;4.416;2023-06-22T12:08:56;21.60;99.90
19880;DHT22;10102;50.828;4.416;2023-06-22T12:11:22;21.30;99.90
19880;DHT22;10102;50.828;4.416;2023-06-22T12:13:47;21.40;99.90
19880;DHT22;10102;50.828;4.416;2023-06-22T12:16:13;21.30;99.90
19880;DHT22;10102;50.828;4.416;2023-06-22T12:18:39;21.20;99.90
19880;DHT22;10102;50.828;4.416;2023-06-22T12:21:04;21.30;99.90
19880;DHT22;10102;50.828;4.416;2023-06-22T12:25:56;21.30;99.90
19880;DHT22;10102;50.828;4.416;2023-06-22T12:30:48;21.10;99.90
19880;DHT22;10102;50.828;4.416;2023-06-22T12:33:15;20.90;99.90
19880;DHT22;10102;50.828;4.416;2023-06-22T12:38:07;21.00;99.90
19880;DHT22;10102;50.828;4.416;2023-06-22T12:40:33;21.20;99.90
19880;DHT22;10102;50.828;4.416;2023-06-22T12:45:25;21.00;99.90
19880;DHT22;10102;50.828;4.416;2023-06-22T12:47:54;20.80;99.90
19880;DHT22;10102;50.828;4.416;2023-06-22T12:50:20;20.90;99.90
19880;DHT22;10102;50.828;4.416;2023-06-22T12:52:45;20.70;99.90
19880;DHT22;10102;50.828;4.416;2023-06-22T12:55:11;20.90;99.90
19880;DHT22;10102;50.828;4.416;2023-06-22T12:57:36;20.60;99.90
19880;DHT22;10102;50.828;4.416;2023-06-22T13:00:03;20.60;99.90
19880;DHT22;10102;50.828;4.416;2023-06-22T13:02:30;20.60;99.90
19880;DHT22;10102;50.828;4.416;2023-06-22T13:04:56;20.80;99.90
19880;DHT22;10102;50.828;4.416;2023-06-22T13:07:21;20.80;99.90
19880;DHT22;10102;50.828;4.416;2023-06-22T13:09:47;20.70;99.90
19880;DHT22;10102;50.828;4.416;2023-06-22T13:12:16;20.50;99.90
19880;DHT22;10102;50.828;4.416;2023-06-22T13:14:42;20.70;99.90
19880;DHT22;10102;50.828;4.416;2023-06-22T13:17:09;20.80;99.90
19880;DHT22;10102;50.828;4.416;2023-06-22T13:19:34;20.70;99.90
19880;DHT22;10102;50.828;4.416;2023-06-22T13:22:00;20.50;99.90
19880;DHT22;10102;50.828;4.416;2023-06-22T13:26:53;20.70;99.90
19880;DHT22;10102;50.828;4.416;2023-06-22T13:29:20;20.70;99.90
19880;DHT22;10102;50.828;4.416;2023-06-22T13:31:46;20.90;99.90
19880;DHT22;10102;50.828;4.416;2023-06-22T13:36:37;20.50;99.90
19880;DHT22;10102;50.828;4.416;2023-06-22T13:39:03;20.80;99.90
19880;DHT22;10102;50.828;4.416;2023-06-22T13:41:29;20.70;99.90
19880;DHT22;10102;50.828;4.416;2023-06-22T13:46:21;20.60;99.90
19880;DHT22;10102;50.828;4.416;2023-06-22T13:48:46;20.50;99.90
19880;DHT22;10102;50.828;4.416;2023-06-22T13:53:38;20.50;99.90
19880;DHT22;10102;50.828;4.416;2023-06-22T13:56:03;20.80;99.90
19880;DHT22;10102;50.828;4.416;2023-06-22T14:03:21;20.40;99.90
19880;DHT22;10102;50.828;4.416;2023-06-22T14:05:47;20.30;99.90
19880;DHT22;10102;50.828;4.416;2023-06-22T14:08:13;20.40;99.90
19880;DHT22;10102;50.828;4.416;2023-06-22T14:10:40;20.50;99.90
19880;DHT22;10102;50.828;4.416;2023-06-22T14:15:32;20.70;99.90
19880;DHT22;10102;50.828;4.416;2023-06-22T14:17:57;20.40;99.90
19880;DHT22;10102;50.828;4.416;2023-06-22T14:20:23;20.30;99.90
19880;DHT22;10102;50.828;4.416;2023-06-22T14:22:49;20.60;99.90
19880;DHT22;10102;50.828;4.416;2023-06-22T14:25:14;20.50;99.90
19880;DHT22;10102;50.828;4.416;2023-06-22T14:30:06;20.90;99.90
19880;DHT22;10102;50.828;4.416;2023-06-22T14:39:50;20.60;99.90
19880;DHT22;10102;50.828;4.416;2023-06-22T14:42:16;21.70;99.90
19880;DHT22;10102;50.828;4.416;2023-06-22T14:47:07;20.50;99.90
19880;DHT22;10102;50.828;4.416;2023-06-22T14:49:33;20.50;99.90
19880;DHT22;10102;50.828;4.416;2023-06-22T14:51:59;20.60;99.90
19880;DHT22;10102;50.828;4.416;2023-06-22T14:54:25;20.40;99.90
19880;DHT22;10102;50.828;4.416;2023-06-22T14:56:51;20.40;99.90
19880;DHT22;10102;50.828;4.416;2023-06-22T14:59:16;20.50;99.90
19880;DHT22;10102;50.828;4.416;2023-06-22T15:01:42;20.60;99.90
19880;DHT22;10102;50.828;4.416;2023-06-22T15:04:07;20.70;99.90
19880;DHT22;10102;50.828;4.416;2023-06-22T15:06:33;20.70;99.90
19880;DHT22;10102;50.828;4.416;2023-06-22T15:08:59;20.70;99.90
19880;DHT22;10102;50.828;4.416;2023-06-22T15:11:24;20.80;99.90
19880;DHT22;10102;50.828;4.416;2023-06-22T15:13:50;20.70;99.90
19880;DHT22;10102;50.828;4.416;2023-06-22T15:16:15;20.60;99.90
19880;DHT22;10102;50.828;4.416;2023-06-22T15:18:41;20.70;99.90
19880;DHT22;10102;50.828;4.416;2023-06-22T15:21:07;20.80;99.90
19880;DHT22;10102;50.828;4.416;2023-06-22T15:23:33;20.80;99.90
19880;DHT22;10102;50.828;4.416;2023-06-22T15:26:02;20.90;99.90
19880;DHT22;10102;50.828;4.416;2023-06-22T15:28:30;20.80;99.90
19880;DHT22;10102;50.828;4.416;2023-06-22T15:33:24;20.90;99.90
19880;DHT22;10102;50.828;4.416;2023-06-22T15:35:50;20.80;99.90
19880;DHT22;10102;50.828;4.416;2023-06-22T15:38:18;21.00;99.90
19880;DHT22;10102;50.828;4.416;2023-06-22T15:40:45;20.90;99.90
19880;DHT22;10102;50.828;4.416;2023-06-22T15:43:11;21.10;99.90
19880;DHT22;10102;50.828;4.416;2023-06-22T15:45:38;20.80;99.90
19880;DHT22;10102;50.828;4.416;2023-06-22T15:48:04;21.00;99.90
19880;DHT22;10102;50.828;4.416;2023-06-22T15:52:55;21.00;99.90
19880;DHT22;10102;50.828;4.416;2023-06-22T15:55:21;21.00;99.90
19880;DHT22;10102;50.828;4.416;2023-06-22T15:57:47;21.20;99.90
19880;DHT22;10102;50.828;4.416;2023-06-22T16:00:15;21.20;99.90
19880;DHT22;10102;50.828;4.416;2023-06-22T16:02:43;21.30;99.90
19880;DHT22;10102;50.828;4.416;2023-06-22T16:05:09;21.30;99.90
19880;DHT22;10102;50.828;4.416;2023-06-22T16:07:36;21.40;99.90
19880;DHT22;10102;50.828;4.416;2023-06-22T16:12:28;21.40;99.90
19880;DHT22;10102;50.828;4.416;2023-06-22T16:17:21;21.50;99.90
19880;DHT22;10102;50.828;4.416;2023-06-22T16:19:47;21.50;99.90
19880;DHT22;10102;50.828;4.416;2023-06-22T16:22:13;21.70;99.90
19880;DHT22;10102;50.828;4.416;2023-06-22T16:29:32;21.60;99.90
19880;DHT22;10102;50.828;4.416;2023-06-22T16:31:57;21.50;99.90
19880;DHT22;10102;50.828;4.416;2023-06-22T16:36:49;21.60;99.90
19880;DHT22;10102;50.828;4.416;2023-06-22T16:39:15;21.60;99.90
19880;DHT22;10102;50.828;4.416;2023-06-22T16:41:40;21.60;99.90
19880;DHT22;10102;50.828;4.416;2023-06-22T16:44:07;21.20;99.90
19880;DHT22;10102;50.828;4.416;2023-06-22T16:46:36;21.20;99.90
19880;DHT22;10102;50.828;4.416;2023-06-22T16:51:27;21.30;99.90
19880;DHT22;10102;50.828;4.416;2023-06-22T16:53:54;21.30;99.90
19880;DHT22;10102;50.828;4.416;2023-06-22T16:56:29;21.20;99.90
19880;DHT22;10102;50.828;4.416;2023-06-22T16:58:57;21.00;99.90
19880;DHT22;10102;50.828;4.416;2023-06-22T17:01:24;21.00;99.90
19880;DHT22;10102;50.828;4.416;2023-06-22T17:04:08;20.90;99.90
19880;DHT22;10102;50.828;4.416;2023-06-22T17:06:35;21.00;99.90
19880;DHT22;10102;50.828;4.416;2023-06-22T17:09:04;21.00;99.90
19880;DHT22;10102;50.828;4.416;2023-06-22T17:11:30;20.90;99.90
19880;DHT22;10102;50.828;4.416;2023-06-22T17:13:58;21.10;99.90
19880;DHT22;10102;50.828;4.416;2023-06-22T17:16:25;21.10;99.90
19880;DHT22;10102;50.828;4.416;2023-06-22T17:18:52;21.20;99.90
19880;DHT22;10102;50.828;4.416;2023-06-22T17:21:23;21.40;99.90
19880;DHT22;10102;50.828;4.416;2023-06-22T17:23:49;21.80;99.90
19880;DHT22;10102;50.828;4.416;2023-06-22T17:28:53;21.40;99.90
19880;DHT22;10102;50.828;4.416;2023-06-22T17:31:35;21.50;99.90
19880;DHT22;10102;50.828;4.416;2023-06-22T17:34:07;21.30;99.90
19880;DHT22;10102;50.828;4.416;2023-06-22T17:38:59;21.30;99.90
19880;DHT22;10102;50.828;4.416;2023-06-22T17:41:34;21.60;99.90
19880;DHT22;10102;50.828;4.416;2023-06-22T17:44:04;21.60;99.90
19880;DHT22;10102;50.828;4.416;2023-06-22T17:46:34;21.60;99.90
19880;DHT22;10102;50.828;4.416;2023-06-22T17:49:00;21.50;99.90
19880;DHT22;10102;50.828;4.416;2023-06-22T17:51:26;21.70;99.90